This is the latest recevied weather packets stored in our database for station/object HB9EYW-6. If no packets are shown the sender has not sent any weather packets the latest 10 day(s).
| Time | Temp. | Humidity | Pressure | Rain* | Wind** | Luminosity | Snow |
|---|---|---|---|---|---|---|---|
| 1777464304 | 23.33° C | 17% | 0 hPa | 0 mm | - | - | - |
| 1777464004 | 23.33° C | 17% | 0 hPa | 0 mm | - | - | - |
| 1777463704 | 23.33° C | 17% | 0 hPa | 0 mm | - | - | - |
| 1777463404 | 23.33° C | 18% | 0 hPa | 0 mm | - | - | - |
| 1777463104 | 23.33° C | 17% | 0 hPa | 0 mm | - | - | - |
| 1777462804 | 23.33° C | 18% | 0 hPa | 0 mm | - | - | - |
| 1777462504 | 22.78° C | 20% | 0 hPa | 0 mm | - | - | - |
| 1777462204 | 22.22° C | 19% | 0 hPa | 0 mm | - | - | - |
| 1777461904 | 22.22° C | 18% | 0 hPa | 0 mm | - | - | - |
| 1777461604 | 22.22° C | 19% | 0 hPa | 0 mm | - | - | - |
| 1777461304 | 21.67° C | 20% | 0 hPa | 0 mm | - | - | - |
| 1777461004 | 21.11° C | 22% | 0 hPa | 0 mm | - | - | - |
| 1777460704 | 20° C | 23% | 0 hPa | 0 mm | - | - | - |
| 1777460404 | 20° C | 23% | 0 hPa | 0 mm | - | - | - |
| 1777460104 | 20° C | 22% | 0 hPa | 0 mm | - | - | - |
| 1777459804 | 19.44° C | 25% | 0 hPa | 0 mm | - | - | - |
| 1777459504 | 18.89° C | 26% | 0 hPa | 0 mm | - | - | - |
| 1777459204 | 18.89° C | 24% | 0 hPa | 0 mm | - | - | - |
| 1777458904 | 17.78° C | 30% | 0 hPa | 0 mm | - | - | - |
| 1777458604 | 17.78° C | 28% | 0 hPa | 0 mm | - | - | - |
| 1777458304 | 17.22° C | 30% | 0 hPa | 0 mm | - | - | - |
| 1777458004 | 16.67° C | 30% | 0 hPa | 0 mm | - | - | - |
| 1777457704 | 16.67° C | 32% | 0 hPa | 0 mm | - | - | - |
| 1777457404 | 16.11° C | 31% | 0 hPa | 0 mm | - | - | - |
| 1777457104 | 16.11° C | 31% | 0 hPa | 0 mm | - | - | - |
* Rain latest hour (hover to see other rain measurements)
** Current wind speed in m/s (hover to see current wind gust speed)